Time;durP1;ratioP1;P1;durP2;ratioP2;P2;SDS_P1;SDS_P2;PMS_P1;PMS_P2;Temp;Humidity;BMP_temperature;BMP_pressure;BME280_temperature;BME280_humidity;BME280_pressure;Samples;Min_cycle;Max_cycle;Signal;HPM_P1;HPM_P2
2023/09/22 00:00:15;;;;;;;4.27;1.90;;;;;;;22.34;53.43;99807.19;5040753;28;20500;-72
2023/09/22 00:02:43;;;;;;;3.65;1.65;;;;;;;22.34;53.46;99803.72;5040229;28;20268;-71
2023/09/22 00:05:10;;;;;;;3.30;1.67;;;;;;;22.33;53.93;99808.19;5039996;28;20086;-72
2023/09/22 00:07:37;;;;;;;4.00;2.00;;;;;;;22.32;53.34;99795.06;5041048;28;20111;-69
2023/09/22 00:10:04;;;;;;;2.95;1.38;;;;;;;22.31;53.19;99794.25;5040484;28;20486;-69
2023/09/22 00:12:34;;;;;;;3.42;1.60;;;;;;;22.31;53.14;99794.25;5050067;28;20024;-72
2023/09/22 00:15:00;;;;;;;3.50;1.58;;;;;;;22.31;53.33;99806.72;5045303;28;20393;-71
2023/09/22 00:17:27;;;;;;;4.00;1.50;;;;;;;22.31;53.19;99804.06;5040284;28;20437;-74
2023/09/22 00:19:52;;;;;;;3.70;1.40;;;;;;;22.29;53.29;99796.25;5039001;28;20032;-71
2023/09/22 00:22:17;;;;;;;3.10;1.40;;;;;;;22.28;53.01;99799.91;5058777;28;20028;-70
2023/09/22 00:24:43;;;;;;;3.25;1.60;;;;;;;22.27;53.23;99801.72;5059482;28;20119;-70
2023/09/22 00:27:08;;;;;;;3.35;1.70;;;;;;;22.28;52.93;99805.19;5060019;28;20036;-74
2023/09/22 00:29:34;;;;;;;2.95;1.38;;;;;;;22.27;53.14;99800.88;5042450;28;20483;-71
2023/09/22 00:31:59;;;;;;;3.65;1.60;;;;;;;22.26;53.08;99802.72;5039492;28;20082;-71
2023/09/22 00:34:24;;;;;;;3.40;1.50;;;;;;;22.27;53.24;99816.81;5039827;28;20086;-71
2023/09/22 00:36:52;;;;;;;2.72;1.40;;;;;;;22.27;53.09;99819.47;5038156;28;20802;-70
2023/09/22 00:39:18;;;;;;;4.50;1.80;;;;;;;22.27;53.08;99822.13;5038844;28;20033;-72
2023/09/22 00:41:43;;;;;;;4.53;1.77;;;;;;;22.25;52.63;99810.88;5039292;28;20047;-71
2023/09/22 00:44:09;;;;;;;3.47;1.67;;;;;;;22.25;53.10;99811.69;5039749;28;20978;-71
2023/09/22 00:46:35;;;;;;;4.20;1.55;;;;;;;22.24;52.92;99806.56;5040025;28;20459;-69
2023/09/22 00:49:01;;;;;;;3.78;1.80;;;;;;;22.24;53.03;99810.03;5038537;28;20090;-70
2023/09/22 00:51:27;;;;;;;3.90;1.73;;;;;;;22.24;52.73;99795.97;5044238;28;20444;-73
2023/09/22 00:53:53;;;;;;;5.47;2.00;;;;;;;22.23;52.69;99789.00;5039598;28;20095;-69
2023/09/22 00:56:20;;;;;;;4.13;1.67;;;;;;;22.24;52.73;99785.34;5039572;28;20032;-73
2023/09/22 00:58:47;;;;;;;4.68;2.10;;;;;;;22.23;52.57;99794.31;5039541;28;20036;-70
2023/09/22 01:01:13;;;;;;;4.18;1.85;;;;;;;22.22;52.59;99792.63;5057015;28;20192;-70
2023/09/22 01:03:38;;;;;;;3.42;1.60;;;;;;;22.23;52.94;99796.94;5058597;28;20029;-70
2023/09/22 01:06:10;;;;;;;5.07;1.88;;;;;;;22.21;52.70;99813.06;5040482;28;20488;-71
2023/09/22 01:08:36;;;;;;;4.57;1.77;;;;;;;22.21;52.79;99812.22;5043609;28;20044;-70
2023/09/22 01:11:01;;;;;;;3.80;1.85;;;;;;;22.21;52.58;99794.47;5048091;28;20981;-71
2023/09/22 01:13:27;;;;;;;5.32;1.92;;;;;;;22.21;52.44;99788.34;5042763;28;20583;-70
2023/09/22 01:15:52;;;;;;;4.25;1.85;;;;;;;22.21;52.45;99804.28;5044040;28;20048;-70
2023/09/22 01:18:17;;;;;;;4.35;1.70;;;;;;;22.20;52.73;99790.16;5041732;28;20040;-69
2023/09/22 01:20:43;;;;;;;4.50;2.10;;;;;;;22.20;52.52;99803.44;5038742;28;20552;-70
2023/09/22 01:23:12;;;;;;;4.43;1.77;;;;;;;22.20;52.79;99802.59;5056470;28;20092;-74
2023/09/22 01:25:41;;;;;;;3.83;1.73;;;;;;;22.15;52.71;99787.22;5058787;28;20041;-70
2023/09/22 01:28:08;;;;;;;4.80;2.10;;;;;;;22.19;52.35;99787.69;5050481;28;20036;-70
2023/09/22 01:30:34;;;;;;;3.45;1.83;;;;;;;22.18;52.38;99776.25;5056346;28;20586;-71
2023/09/22 01:33:03;;;;;;;4.90;2.10;;;;;;;22.18;52.42;99778.91;5038671;28;20029;-71
2023/09/22 01:35:32;;;;;;;5.03;2.00;;;;;;;22.18;52.32;99776.25;5044458;28;20075;-69
2023/09/22 01:38:03;;;;;;;4.78;2.20;;;;;;;22.17;52.55;99773.78;5042751;28;20033;-71
2023/09/22 01:40:28;;;;;;;4.53;2.20;;;;;;;22.17;52.11;99779.09;5050577;28;20043;-69
2023/09/22 01:42:53;;;;;;;4.50;2.10;;;;;;;22.15;52.42;99770.47;5058140;28;20020;-70
2023/09/22 01:45:19;;;;;;;7.30;2.35;;;;;;;22.15;52.02;99773.94;5058830;28;20028;-70
2023/09/22 01:47:44;;;;;;;4.43;1.92;;;;;;;22.16;52.49;99777.41;5058278;28;20028;-70
2023/09/22 01:50:09;;;;;;;4.57;1.83;;;;;;;22.16;52.38;99777.41;5058704;28;20400;-70
2023/09/22 01:52:37;;;;;;;3.60;1.75;;;;;;;22.15;52.11;99792.53;5058401;28;20497;-71
2023/09/22 01:55:05;;;;;;;4.15;1.83;;;;;;;22.16;52.04;99793.34;5044131;28;20477;-71
2023/09/22 01:57:31;;;;;;;3.65;2.03;;;;;;;22.16;52.37;99782.72;5058879;28;20032;-73
2023/09/22 01:59:56;;;;;;;4.50;2.17;;;;;;;22.15;52.22;99783.75;5058317;28;20024;-70
2023/09/22 02:02:21;;;;;;;4.05;1.80;;;;;;;22.15;52.12;99783.75;5058868;28;20503;-71
2023/09/22 02:04:47;;;;;;;3.60;1.80;;;;;;;22.14;52.10;99780.25;5040242;28;20028;-69
2023/09/22 02:07:12;;;;;;;4.35;1.98;;;;;;;22.14;52.30;99779.44;5052440;28;20050;-70
2023/09/22 02:09:37;;;;;;;4.60;2.28;;;;;;;22.15;52.43;99775.78;5041513;28;20029;-72
2023/09/22 02:12:03;;;;;;;4.22;2.00;;;;;;;22.14;52.26;99779.44;5054767;28;20059;-73
2023/09/22 02:14:28;;;;;;;5.88;1.92;;;;;;;22.14;52.00;99782.09;5058728;28;20025;-71
2023/09/22 02:16:54;;;;;;;3.83;1.70;;;;;;;22.14;52.12;99787.38;5053935;28;20040;-71
2023/09/22 02:19:19;;;;;;;4.47;2.28;;;;;;;22.13;52.23;99791.88;5009688;28;20034;-72
2023/09/22 02:21:46;;;;;;;3.77;2.00;;;;;;;22.12;52.30;99789.41;5042774;28;20036;-70
2023/09/22 02:24:11;;;;;;;4.45;1.73;;;;;;;22.13;52.40;99793.69;5043607;28;21363;-70
2023/09/22 02:26:36;;;;;;;6.50;2.00;;;;;;;22.12;51.97;99792.06;5042298;28;20028;-74
2023/09/22 02:29:02;;;;;;;4.63;1.83;;;;;;;22.12;51.81;99800.03;5052557;28;20292;-70
2023/09/22 02:31:28;;;;;;;4.80;1.90;;;;;;;22.11;52.11;99785.91;5048237;28;20366;-69
2023/09/22 02:33:53;;;;;;;3.42;1.80;;;;;;;22.09;52.14;99787.91;5052580;28;20029;-70
2023/09/22 02:36:18;;;;;;;4.55;1.90;;;;;;;22.10;52.18;99784.28;5058109;28;20813;-71
2023/09/22 02:38:44;;;;;;;4.35;1.98;;;;;;;22.10;52.28;99785.09;5058400;28;20032;-70
2023/09/22 02:41:14;;;;;;;4.10;1.83;;;;;;;22.10;52.15;99785.09;5036526;28;20028;-70
2023/09/22 02:43:39;;;;;;;4.20;2.08;;;;;;;22.09;52.26;99782.63;5047089;28;20212;-71
2023/09/22 02:46:05;;;;;;;4.10;2.17;;;;;;;22.10;51.87;99789.59;5039082;28;20104;-72
2023/09/22 02:48:30;;;;;;;4.55;1.90;;;;;;;22.08;51.92;99780.97;5037727;28;20124;-70
2023/09/22 02:50:55;;;;;;;4.45;2.05;;;;;;;22.08;52.05;99789.75;5044296;28;20897;-70
2023/09/22 02:53:21;;;;;;;3.58;1.63;;;;;;;22.08;52.19;99787.09;5047247;28;20025;-70
2023/09/22 02:55:46;;;;;;;4.05;1.80;;;;;;;22.08;52.19;99786.28;5057415;28;20559;-70
2023/09/22 02:58:12;;;;;;;3.28;1.60;;;;;;;22.09;52.12;99787.91;5038358;28;20493;-73
2023/09/22 03:00:43;;;;;;;4.15;1.70;;;;;;;22.08;52.06;99792.41;5038455;28;20037;-70
2023/09/22 03:03:10;;;;;;;4.68;1.92;;;;;;;22.08;52.10;99786.28;5046263;28;20028;-70
2023/09/22 03:05:36;;;;;;;4.30;2.00;;;;;;;22.06;51.95;99790.91;5054638;28;20119;-69
2023/09/22 03:08:04;;;;;;;3.95;1.73;;;;;;;22.07;52.14;99789.94;5055049;28;20039;-70
2023/09/22 03:10:32;;;;;;;3.20;1.70;;;;;;;22.04;51.78;99783.13;5061596;28;20956;-71
2023/09/22 03:12:58;;;;;;;3.70;1.80;;;;;;;22.06;52.09;99793.56;5059629;28;20028;-70
2023/09/22 03:15:24;;;;;;;6.40;1.90;;;;;;;22.06;51.72;99796.22;5061012;28;20047;-70
2023/09/22 03:17:49;;;;;;;3.03;1.70;;;;;;;22.05;52.01;99797.25;5060502;28;20134;-74
2023/09/22 03:20:17;;;;;;;3.72;1.90;;;;;;;22.05;52.08;99803.38;5049690;28;20044;-67
2023/09/22 03:22:43;;;;;;;4.68;1.70;;;;;;;22.04;52.22;99796.41;5047784;28;20029;-70
2023/09/22 03:25:10;;;;;;;3.95;1.90;;;;;;;22.04;52.18;99801.72;5054631;28;20960;-72
2023/09/22 03:27:36;;;;;;;4.32;1.90;;;;;;;22.05;51.64;99798.06;5032672;28;20040;-70
2023/09/22 03:30:03;;;;;;;3.53;1.70;;;;;;;22.05;51.74;99797.25;5048722;28;20059;-73
2023/09/22 03:32:29;;;;;;;4.07;1.70;;;;;;;22.04;51.90;99798.25;5029273;28;20060;-70
2023/09/22 03:34:55;;;;;;;3.83;1.63;;;;;;;22.04;52.09;99795.59;5047507;28;20028;-70
2023/09/22 03:37:20;;;;;;;5.43;1.80;;;;;;;22.03;52.04;99800.06;5041270;28;20087;-71
2023/09/22 03:39:46;;;;;;;3.67;1.50;;;;;;;22.04;51.92;99801.72;5047063;28;20513;-71
2023/09/22 03:42:14;;;;;;;2.72;1.40;;;;;;;22.03;52.22;99809.84;5047249;28;20028;-71
2023/09/22 03:44:40;;;;;;;4.40;1.80;;;;;;;22.04;52.21;99807.00;5046122;28;20033;-70
2023/09/22 03:47:05;;;;;;;3.05;1.48;;;;;;;22.04;52.13;99800.91;5041130;28;20025;-70
2023/09/22 03:49:31;;;;;;;3.58;1.55;;;;;;;22.02;51.70;99798.41;5053958;28;20032;-71
2023/09/22 03:51:56;;;;;;;4.18;1.60;;;;;;;22.03;51.70;99804.53;5056948;28;20048;-72
2023/09/22 03:54:22;;;;;;;3.38;1.50;;;;;;;22.01;51.80;99801.25;5040422;28;20033;-73
2023/09/22 03:56:47;;;;;;;2.88;1.42;;;;;;;22.01;51.99;99798.59;5044661;28;20878;-71
2023/09/22 03:59:12;;;;;;;4.22;1.30;;;;;;;22.01;52.22;99804.72;5049984;28;20029;-73
2023/09/22 04:01:38;;;;;;;3.95;1.50;;;;;;;22.01;51.92;99806.53;5044098;28;20223;-70
2023/09/22 04:04:04;;;;;;;2.83;1.25;;;;;;;22.01;52.21;99807.38;5043840;28;20394;-69
2023/09/22 04:06:31;;;;;;;2.72;1.20;;;;;;;22.02;52.07;99808.22;5053300;28;20035;-70
2023/09/22 04:08:56;;;;;;;3.45;1.50;;;;;;;22.00;51.79;99803.06;5051257;28;20070;-69
2023/09/22 04:11:22;;;;;;;2.85;1.20;;;;;;;22.01;51.72;99809.19;5049241;28;20503;-70
2023/09/22 04:13:47;;;;;;;2.88;1.30;;;;;;;22.01;51.94;99809.19;5045490;28;20029;-73
2023/09/22 04:16:13;;;;;;;2.38;1.20;;;;;;;22.00;51.95;99808.38;5047963;28;20032;-72
2023/09/22 04:18:38;;;;;;;3.00;1.10;;;;;;;22.00;51.68;99808.38;5040148;28;20450;-69
2023/09/22 04:21:06;;;;;;;2.78;1.30;;;;;;;22.00;51.86;99807.53;5040492;28;20056;-71
2023/09/22 04:23:32;;;;;;;3.10;1.30;;;;;;;21.99;52.01;99812.03;5049939;28;20040;-69
2023/09/22 04:26:09;;;;;;;1.77;0.85;;;;;;;21.98;52.10;99820.97;5044391;28;20048;-69
2023/09/22 04:28:36;;;;;;;2.38;1.10;;;;;;;21.99;52.09;99824.47;5012046;28;20068;-69
2023/09/22 04:31:02;;;;;;;2.90;1.20;;;;;;;21.99;51.54;99822.63;5049847;28;20059;-69
2023/09/22 04:33:27;;;;;;;2.28;1.00;;;;;;;21.99;51.72;99821.81;5050053;28;20036;-69
2023/09/22 04:35:52;;;;;;;2.67;1.30;;;;;;;21.98;52.04;99818.31;5054028;28;20451;-72
2023/09/22 04:38:18;;;;;;;3.33;1.00;;;;;;;21.99;51.77;99821.81;5044699;28;20168;-69
2023/09/22 04:40:44;;;;;;;2.42;1.02;;;;;;;21.96;52.02;99820.34;5049522;28;20028;-70
2023/09/22 04:43:12;;;;;;;2.42;0.90;;;;;;;21.96;51.88;99822.97;5044519;28;20029;-69
2023/09/22 04:45:40;;;;;;;4.10;1.20;;;;;;;21.97;51.71;99822.00;5047652;28;20032;-70
2023/09/22 04:48:08;;;;;;;2.65;1.10;;;;;;;21.97;51.70;99829.94;5051655;28;20035;-73
2023/09/22 04:50:34;;;;;;;2.15;1.00;;;;;;;21.96;51.54;99819.50;5053210;28;20049;-70
2023/09/22 04:53:00;;;;;;;3.05;0.95;;;;;;;21.96;52.04;99822.16;5047995;28;20118;-70
2023/09/22 04:55:26;;;;;;;5.32;1.35;;;;;;;21.96;51.41;99817.69;5042458;28;20034;-69
2023/09/22 04:57:51;;;;;;;3.20;1.10;;;;;;;21.94;51.92;99822.34;5041723;28;20037;-70
2023/09/22 05:00:17;;;;;;;2.22;1.02;;;;;;;21.95;51.85;99820.50;5039996;28;20044;-73
2023/09/22 05:02:43;;;;;;;3.58;1.20;;;;;;;21.93;51.44;99824.16;5042182;28;20043;-70
2023/09/22 05:05:09;;;;;;;2.50;1.08;;;;;;;21.94;51.85;99825.00;5045337;28;20169;-71
2023/09/22 05:07:35;;;;;;;2.90;1.20;;;;;;;21.93;51.79;99826.81;5050743;28;20512;-71
2023/09/22 05:10:00;;;;;;;3.97;1.20;;;;;;;21.92;51.58;99832.28;5036116;28;20025;-71
2023/09/22 05:12:26;;;;;;;3.45;1.00;;;;;;;21.93;51.69;99831.28;5046047;28;21078;-70
2023/09/22 05:14:52;;;;;;;3.28;1.20;;;;;;;21.94;51.86;99840.91;5039093;28;20170;-71
2023/09/22 05:17:18;;;;;;;3.40;1.33;;;;;;;21.91;51.65;99842.06;5048809;28;20036;-75
2023/09/22 05:19:44;;;;;;;2.35;1.00;;;;;;;21.92;51.58;99842.88;5039340;28;20032;-70
2023/09/22 05:22:10;;;;;;;3.85;1.25;;;;;;;21.92;51.65;99848.19;5039075;28;20032;-73
2023/09/22 05:24:36;;;;;;;2.03;1.00;;;;;;;21.92;51.53;99850.84;5043041;28;20028;-69
2023/09/22 05:27:04;;;;;;;2.60;1.00;;;;;;;21.92;51.80;99851.69;5052753;28;20035;-70
2023/09/22 05:29:29;;;;;;;5.00;1.27;;;;;;;21.91;51.73;99851.88;5052611;28;20409;-70
2023/09/22 05:31:55;;;;;;;2.40;0.90;;;;;;;21.92;51.58;99851.69;5040784;28;20028;-70
2023/09/22 05:34:20;;;;;;;2.75;1.20;;;;;;;21.90;51.52;99852.84;5039533;28;20494;-71
2023/09/22 05:36:46;;;;;;;2.53;1.02;;;;;;;21.91;51.67;99858.00;5050678;28;20063;-69
2023/09/22 05:39:14;;;;;;;2.83;1.08;;;;;;;21.91;51.76;99863.28;5039115;28;20111;-69
2023/09/22 05:41:41;;;;;;;3.47;1.13;;;;;;;21.91;51.24;99859.81;5047223;28;20078;-71
2023/09/22 05:44:07;;;;;;;2.97;1.20;;;;;;;21.90;51.52;99872.28;5057077;28;20032;-69
2023/09/22 05:46:33;;;;;;;2.97;1.02;;;;;;;21.90;51.32;99871.41;5040417;28;20051;-69
2023/09/22 05:48:59;;;;;;;3.03;0.98;;;;;;;21.89;51.99;99878.56;5039248;28;20835;-73
2023/09/22 05:51:24;;;;;;;2.90;1.00;;;;;;;21.89;51.48;99867.94;5034426;28;20298;-71
2023/09/22 05:53:52;;;;;;;3.10;1.00;;;;;;;21.89;51.61;99870.59;5029970;28;20033;-72
2023/09/22 05:56:18;;;;;;;4.45;1.30;;;;;;;21.89;51.56;99867.13;5057541;28;20036;-69
2023/09/22 05:58:44;;;;;;;2.17;0.90;;;;;;;21.89;51.44;99872.44;5041601;28;20482;-69
2023/09/22 06:01:11;;;;;;;4.10;1.00;;;;;;;21.89;51.11;99885.69;5039095;28;20507;-70
2023/09/22 06:03:40;;;;;;;3.42;1.00;;;;;;;21.88;51.48;99898.13;5039301;28;20398;-73
2023/09/22 06:06:09;;;;;;;2.65;1.00;;;;;;;21.88;51.62;99889.34;5043259;28;20040;-71
2023/09/22 06:08:39;;;;;;;2.55;1.10;;;;;;;21.88;51.52;99899.94;5053918;28;20432;-73
2023/09/22 06:11:05;;;;;;;2.80;1.10;;;;;;;21.88;51.39;99905.25;5020269;28;20029;-72
2023/09/22 06:13:32;;;;;;;5.45;1.20;;;;;;;21.88;51.80;99902.59;5039994;28;20033;-70
2023/09/22 06:15:58;;;;;;;3.38;0.93;;;;;;;21.87;51.30;99903.59;5038727;28;20033;-69
2023/09/22 06:18:24;;;;;;;3.15;1.02;;;;;;;21.86;51.44;99908.09;5038130;28;20040;-73
2023/09/22 06:20:49;;;;;;;2.75;1.20;;;;;;;21.85;51.50;99892.34;5038696;28;20394;-69
2023/09/22 06:23:16;;;;;;;2.10;0.90;;;;;;;21.85;51.15;99900.28;5038154;28;20036;-70
2023/09/22 06:25:41;;;;;;;3.70;1.00;;;;;;;21.88;51.64;99902.59;5042370;28;20523;-71
2023/09/22 06:28:07;;;;;;;3.33;1.20;;;;;;;21.92;51.83;99909.19;5038262;28;20041;-70
2023/09/22 06:30:35;;;;;;;3.30;1.00;;;;;;;21.89;51.89;99905.09;5039024;28;20060;-75
2023/09/22 06:33:01;;;;;;;2.72;1.00;;;;;;;21.91;51.95;99912.88;5044058;28;20054;-71
2023/09/22 06:35:26;;;;;;;3.00;0.90;;;;;;;21.90;51.95;99919.16;5038790;28;20028;-70
2023/09/22 06:37:51;;;;;;;2.88;1.10;;;;;;;21.89;52.13;99918.34;5045213;28;20132;-70
2023/09/22 06:40:17;;;;;;;3.47;1.10;;;;;;;21.89;52.42;99922.84;5043237;28;20128;-68
2023/09/22 06:42:44;;;;;;;3.05;1.20;;;;;;;21.88;52.25;99919.34;5041709;28;20079;-71
2023/09/22 06:45:11;;;;;;;4.50;1.20;;;;;;;21.89;52.69;99926.31;5044174;28;20197;-69
2023/09/22 06:47:43;;;;;;;2.17;0.93;;;;;;;21.89;52.78;99930.78;5049522;28;20058;-71
2023/09/22 06:50:11;;;;;;;2.95;1.00;;;;;;;21.91;52.53;99939.41;5055976;28;20047;-70
2023/09/22 06:52:38;;;;;;;2.88;0.95;;;;;;;21.90;52.83;99938.59;5043777;28;20420;-68
2023/09/22 06:55:08;;;;;;;3.08;1.00;;;;;;;21.91;52.70;99944.69;5023751;28;20033;-71
2023/09/22 06:57:34;;;;;;;3.78;1.00;;;;;;;21.91;52.55;99934.09;5034711;28;20036;-70
2023/09/22 06:59:59;;;;;;;3.08;0.93;;;;;;;21.91;53.01;99936.75;5041460;28;20765;-72
2023/09/22 07:02:24;;;;;;;3.25;1.00;;;;;;;21.91;53.02;99934.09;5041870;28;20476;-73
2023/09/22 07:04:50;;;;;;;3.88;1.13;;;;;;;21.92;53.31;99933.91;5050234;28;20649;-70
2023/09/22 07:07:15;;;;;;;4.25;1.10;;;;;;;21.90;53.08;99943.88;5040036;28;20590;-71
2023/09/22 07:09:43;;;;;;;2.38;0.98;;;;;;;21.93;52.76;99945.34;5042104;28;20111;-72
2023/09/22 07:12:09;;;;;;;2.30;1.00;;;;;;;21.95;53.17;99947.84;5050166;28;20037;-70
2023/09/22 07:14:34;;;;;;;2.55;0.90;;;;;;;21.95;52.91;99947.84;5061349;28;20039;-71
2023/09/22 07:17:00;;;;;;;4.30;1.20;;;;;;;21.95;53.22;99956.59;5055673;28;20604;-71
2023/09/22 07:19:25;;;;;;;2.75;1.00;;;;;;;21.96;52.95;99950.31;5041349;28;20079;-71
2023/09/22 07:21:51;;;;;;;3.58;0.90;;;;;;;21.93;53.19;99948.81;5049960;28;20024;-70
2023/09/22 07:24:17;;;;;;;2.55;1.00;;;;;;;21.95;53.26;99956.59;5046880;28;20028;-70
2023/09/22 07:26:43;;;;;;;3.60;0.93;;;;;;;21.97;53.25;99962.59;5046570;28;20029;-68
2023/09/22 07:29:08;;;;;;;3.22;1.20;;;;;;;21.95;53.41;99956.59;5041926;28;20036;-73
2023/09/22 07:31:34;;;;;;;3.47;1.15;;;;;;;21.98;53.23;99961.56;5035977;28;20048;-71
2023/09/22 07:33:59;;;;;;;2.95;1.00;;;;;;;22.00;52.87;99964.06;5042769;28;20886;-70
2023/09/22 07:36:26;;;;;;;2.85;1.02;;;;;;;21.99;53.39;99968.53;5044129;28;20511;-69
2023/09/22 07:38:55;;;;;;;3.95;1.17;;;;;;;22.00;52.89;99979.97;5040813;28;20036;-70
2023/09/22 07:41:20;;;;;;;5.18;1.00;;;;;;;21.99;52.95;99978.34;5040937;28;20036;-70
2023/09/22 07:43:46;;;;;;;2.05;0.90;;;;;;;21.99;53.37;99984.47;5040671;28;20025;-70
2023/09/22 07:46:11;;;;;;;4.68;0.88;;;;;;;22.01;52.69;99997.56;5040940;28;20039;-71
2023/09/22 07:48:37;;;;;;;6.20;1.00;;;;;;;22.00;53.30;99987.94;5048262;28;20033;-70
2023/09/22 07:51:02;;;;;;;3.10;0.93;;;;;;;22.01;52.78;99990.41;5044704;28;20469;-70
2023/09/22 07:53:28;;;;;;;5.65;0.90;;;;;;;21.99;52.73;99995.06;5050862;28;20473;-71
2023/09/22 07:55:59;;;;;;;2.10;0.80;;;;;;;22.02;52.65;100007.19;5043804;28;20033;-70
2023/09/22 07:58:25;;;;;;;7.95;1.35;;;;;;;22.02;52.66;100008.00;5044929;28;20047;-70
2023/09/22 08:00:52;;;;;;;5.72;1.02;;;;;;;22.02;52.97;100008.00;5047713;28;20033;-73
2023/09/22 08:03:20;;;;;;;5.90;1.20;;;;;;;22.02;52.34;100010.66;5044945;28;20029;-73
2023/09/22 08:05:48;;;;;;;4.60;1.10;;;;;;;22.01;52.89;100002.88;5031495;28;20402;-69
2023/09/22 08:08:15;;;;;;;8.00;0.98;;;;;;;22.00;52.27;100009.16;5058321;28;20113;-73
2023/09/22 08:10:41;;;;;;;4.10;1.08;;;;;;;22.01;52.54;100019.59;5054071;28;20037;-71
2023/09/22 08:13:10;;;;;;;4.15;0.77;;;;;;;22.00;52.74;100012.66;5043848;28;20505;-69
2023/09/22 08:15:37;;;;;;;2.80;0.80;;;;;;;21.99;52.57;100023.44;5053251;28;20119;-69
2023/09/22 08:18:05;;;;;;;2.08;1.05;;;;;;;22.00;52.45;100014.47;5046730;28;20036;-69
2023/09/22 08:20:31;;;;;;;2.75;1.00;;;;;;;21.99;52.72;100024.25;5049245;28;20035;-70
2023/09/22 08:22:56;;;;;;;3.60;0.80;;;;;;;21.99;52.34;100021.59;5044369;28;20685;-68
2023/09/22 08:25:22;;;;;;;3.53;0.90;;;;;;;21.99;52.28;100029.56;5045453;28;20032;-71
2023/09/22 08:27:48;;;;;;;2.53;1.00;;;;;;;21.98;52.57;100022.59;5051603;28;20036;-69
2023/09/22 08:30:14;;;;;;;1.75;0.80;;;;;;;21.97;52.35;100018.31;5041375;28;20048;-69
2023/09/22 08:32:44;;;;;;;2.47;1.20;;;;;;;21.97;52.44;100028.91;5048397;28;20029;-69
2023/09/22 08:35:12;;;;;;;2.83;0.80;;;;;;;21.99;52.44;100031.41;5048231;28;20580;-71
2023/09/22 08:37:41;;;;;;;4.32;0.90;;;;;;;21.96;52.42;100031.72;5037895;28;20069;-69
2023/09/22 08:40:09;;;;;;;5.20;0.80;;;;;;;21.96;52.15;100029.91;5048814;28;20671;-68
2023/09/22 08:42:36;;;;;;;2.65;0.70;;;;;;;21.97;52.26;100034.22;5052658;28;20086;-71
2023/09/22 08:45:02;;;;;;;2.42;0.70;;;;;;;21.97;52.33;100034.22;5039801;28;20039;-73
2023/09/22 08:47:27;;;;;;;2.33;0.90;;;;;;;21.97;52.31;100036.88;5039695;28;20037;-70
2023/09/22 08:49:53;;;;;;;1.90;0.60;;;;;;;21.99;52.42;100031.41;5050127;28;20037;-73
2023/09/22 08:52:20;;;;;;;2.60;0.93;;;;;;;21.99;52.08;100028.75;5024010;28;20029;-68
2023/09/22 08:54:46;;;;;;;2.47;0.70;;;;;;;21.97;52.74;100039.53;5048894;28;20029;-70
2023/09/22 08:57:14;;;;;;;1.48;0.70;;;;;;;21.97;52.27;100036.88;5050575;28;20036;-70
2023/09/22 08:59:41;;;;;;;4.45;0.82;;;;;;;21.96;52.24;100043.16;5046552;28;20061;-74
2023/09/22 09:02:09;;;;;;;2.47;0.68;;;;;;;21.95;52.15;100030.88;5041066;28;20029;-71
2023/09/22 09:04:40;;;;;;;4.22;0.90;;;;;;;21.96;52.25;100037.84;5043464;28;20560;-69
2023/09/22 09:07:08;;;;;;;2.10;0.70;;;;;;;21.96;52.28;100040.50;5047099;28;20123;-69
2023/09/22 09:09:44;;;;;;;5.50;0.85;;;;;;;21.97;52.28;100047.47;5043446;28;20107;-72
2023/09/22 09:12:11;;;;;;;2.83;0.77;;;;;;;21.98;52.10;100050.94;5059695;28;20028;-72
2023/09/22 09:14:46;;;;;;;1.73;0.65;;;;;;;21.96;51.78;100048.47;5058751;28;20032;-75
2023/09/22 09:17:19;;;;;;;2.13;0.70;;;;;;;21.96;52.12;100042.34;5049190;28;20028;-68
2023/09/22 09:20:02;;;;;;;2.30;0.70;;;;;;;21.95;51.97;100041.50;5058978;28;20029;-74
2023/09/22 09:22:37;;;;;;;2.05;0.70;;;;;;;21.95;52.07;100049.44;5037129;28;20039;-68
2023/09/22 09:25:09;;;;;;;2.53;0.68;;;;;;;21.98;51.93;100056.25;5039308;28;20401;-69
2023/09/22 09:27:34;;;;;;;2.40;0.70;;;;;;;21.97;51.89;100050.13;5043596;28;20064;-68
2023/09/22 09:30:08;;;;;;;2.22;0.80;;;;;;;21.95;51.94;100052.09;5052538;28;20087;-68
2023/09/22 09:32:33;;;;;;;;;;;;;;;22.02;51.98;100049.63;5032189;28;20037;-69
2023/09/22 09:34:59;;;;;;;1.77;0.70;;;;;;;22.03;51.89;100051.25;5054613;28;19916;-73
2023/09/22 09:37:26;;;;;;;1.63;0.60;;;;;;;21.99;52.00;100053.44;5051062;28;21061;-69
2023/09/22 09:39:58;;;;;;;2.53;0.70;;;;;;;21.98;51.79;100057.06;5053567;28;20040;-72
2023/09/22 09:42:24;;;;;;;3.38;0.82;;;;;;;21.96;52.02;100052.97;5058356;28;20033;-69
2023/09/22 09:45:09;;;;;;;2.25;0.80;;;;;;;21.95;51.71;100054.75;5040539;28;20485;-71
2023/09/22 09:47:42;;;;;;;3.17;0.80;;;;;;;21.95;51.65;100049.44;5038627;28;20036;-69
2023/09/22 09:50:09;;;;;;;0.98;0.55;;;;;;;21.98;51.61;100057.06;5039230;28;20205;-68
2023/09/22 09:52:43;;;;;;;2.30;0.90;;;;;;;21.99;51.74;100065.88;5038897;28;20489;-69
2023/09/22 09:55:11;;;;;;;2.63;0.70;;;;;;;21.99;51.74;100063.22;5040062;28;20085;-69
2023/09/22 09:57:39;;;;;;;1.52;0.60;;;;;;;21.99;51.72;100069.34;5038499;28;20044;-74
2023/09/22 10:00:13;;;;;;;2.42;0.63;;;;;;;21.98;52.02;100072.19;5037705;28;20040;-69
2023/09/22 10:02:45;;;;;;;1.40;0.70;;;;;;;21.96;51.94;100061.72;5047274;28;20044;-69
2023/09/22 10:05:14;;;;;;;2.45;0.80;;;;;;;21.96;51.64;100061.72;5048301;28;20039;-69
2023/09/22 10:07:42;;;;;;;2.47;0.80;;;;;;;21.99;51.45;100060.56;5051227;28;20090;-73
2023/09/22 10:10:09;;;;;;;1.88;0.50;;;;;;;21.97;51.81;100068.72;5043223;28;20033;-69
2023/09/22 10:12:35;;;;;;;4.85;1.05;;;;;;;21.96;51.87;100055.59;5048089;28;20115;-69
2023/09/22 10:15:04;;;;;;;2.40;0.77;;;;;;;;;;5045725;28;20039;-72
2023/09/22 10:17:31;;;;;;;1.75;0.63;;;;;;;21.97;51.77;100058.09;5045670;28;20044;-70
2023/09/22 10:19:57;;;;;;;2.70;0.70;;;;;;;21.95;51.75;100060.06;5036956;28;20708;-68
2023/09/22 10:22:22;;;;;;;2.53;1.45;;;;;;;21.96;51.56;100060.91;5047719;28;20033;-72
2023/09/22 10:25:13;;;;;;;1.75;0.77;;;;;;;21.93;51.96;100054.09;5043992;28;20036;-69
2023/09/22 10:28:00;;;;;;;1.50;0.60;;;;;;;21.96;51.74;100051.13;5055146;28;20036;-70
2023/09/22 10:30:43;;;;;;;2.20;0.88;;;;;;;21.95;51.65;100053.94;5047764;28;20591;-73
2023/09/22 10:33:25;;;;;;;2.28;0.90;;;;;;;21.95;51.50;100052.09;5050892;28;20036;-68
2023/09/22 10:35:50;;;;;;;1.27;0.60;;;;;;;21.96;51.41;100045.81;5042279;28;20037;-70
2023/09/22 10:38:19;;;;;;;2.72;0.88;;;;;;;21.98;51.36;100048.31;5043658;28;20028;-69
2023/09/22 10:41:00;;;;;;;2.92;0.70;;;;;;;21.97;51.34;100055.44;5058647;28;20638;-71
2023/09/22 10:43:26;;;;;;;3.00;0.80;;;;;;;21.91;51.83;100051.63;5049492;28;20090;-79
2023/09/22 10:45:52;;;;;;;3.05;0.90;;;;;;;21.91;51.67;100050.81;5054288;28;20032;-70
2023/09/22 10:48:18;;;;;;;3.67;0.82;;;;;;;21.90;51.94;100052.63;5050074;28;20037;-75
2023/09/22 10:50:49;;;;;;;2.35;0.80;;;;;;;21.91;52.06;100040.19;5044169;28;20383;-71
2023/09/22 10:53:15;;;;;;;3.75;1.00;;;;;;;21.94;51.52;100050.47;5043242;28;20144;-74
2023/09/22 10:55:43;;;;;;;2.28;0.70;;;;;;;21.93;52.10;100046.16;5054933;28;20537;-72
2023/09/22 10:58:18;;;;;;;4.32;0.90;;;;;;;21.93;51.64;100049.63;5047232;28;20037;-69
2023/09/22 11:01:00;;;;;;;8.25;1.60;;;;;;;21.94;52.32;100053.13;5041769;28;20076;-69
2023/09/22 11:03:27;;;;;;;4.75;1.58;;;;;;;21.92;51.84;100049.78;5047738;28;20483;-69
2023/09/22 11:06:10;;;;;;;7.78;2.25;;;;;;;21.93;52.04;100044.31;5055960;28;20024;-69
2023/09/22 11:08:52;;;;;;;7.13;1.73;;;;;;;21.95;52.19;100051.28;5036141;28;20040;-69
2023/09/22 11:11:19;;;;;;;10.30;2.00;;;;;;;21.96;51.97;100045.81;5047227;28;20065;-71
2023/09/22 11:13:52;;;;;;;6.60;1.85;;;;;;;21.97;52.27;100058.09;5041106;28;20025;-70
2023/09/22 11:16:18;;;;;;;6.20;1.70;;;;;;;22.03;51.99;100052.13;5050496;28;20029;-68
2023/09/22 11:18:44;;;;;;;6.20;1.67;;;;;;;22.05;51.68;100060.72;5050651;28;20040;-70
2023/09/22 11:21:11;;;;;;;4.22;1.48;;;;;;;22.07;51.63;100063.22;5047767;28;20057;-70
2023/09/22 11:23:38;;;;;;;5.30;1.50;;;;;;;22.10;51.70;100069.00;5044937;28;20025;-73
2023/09/22 11:26:08;;;;;;;8.07;1.85;;;;;;;22.10;51.33;100066.34;5039200;28;20086;-74
2023/09/22 11:28:35;;;;;;;4.88;1.40;;;;;;;22.14;51.31;100073.97;5052876;28;20059;-76
2023/09/22 11:31:27;;;;;;;8.43;2.25;;;;;;;22.11;51.33;100069.81;5044864;28;20080;-75